UTAT

Details ICAO UTAT (TAZ)
Name DASHOGUZ
Region Tajikistan, Turkmenistan and Uzbekistan
Timezone Asia/Ashgabat (UTC+5.0)
Plans Departing 5
Arriving 9
Stats Elevation 272 ft / 83 m (AMSL)
Location 41.760700° 59.837900°
Runways 2
Magnetic Variation 6.466° E
Sunrise 2020-02-17 02:56:12 UTC / 2020-02-17 07:56:12 Local
Sunset 2020-02-17 13:36:06 UTC / 2020-02-17 18:36:06 Local
Advertisement - Login to hide

Runways

ID Width Length Bearing (true/mag) Surface Threshold Overrun Markings Lighting
09L 138 ft / 42 m 8,845 ft / 2,696 m 90.01° / 83.54° ASPHALT 0 ft / 0 m 0 ft / 0 m APP EDGE THRESHOLD MALS
09R 98 ft / 30 m 4,893 ft / 1,491 m 89.99° / 83.53° ASPHALT 0 ft / 0 m 0 ft / 0 m APP
27L 98 ft / 30 m 4,893 ft / 1,491 m 270.01° / 263.54° ASPHALT 0 ft / 0 m 0 ft / 0 m APP
27R 138 ft / 42 m 8,845 ft / 2,696 m 270.03° / 263.56° ASPHALT 0 ft / 0 m 0 ft / 0 m APP EDGE THRESHOLD MALS

Map

Weather


0- 5 10 15 20 25 30 35+ Temperature / °C

Clouds and Precipitation
Forecast for 2020-02-17 06:00 UTC. Updated 8 minutes ago

Ground ~20,000 ft ~40,000 ft Winds

METAR

UTAT 170300Z 04006KT CAVOK M02/M04 Q1036 R08/CLRD70 NOSIG

TAF

TAF UTAT 162249Z 1700/1724 05010KT 6000 SCT010 OVC020 TEMPO 1700/1706 VRB02KT 1000 BR OVC005

Frequencies

Approach 131.70 MHz TRANSIT
Approach 124.70 MHz
Warning: Do not use this data for real-world aviation or navigation. No guarantee of current accuracy is given.